Time;durP1;ratioP1;P1;durP2;ratioP2;P2;SDS_P1;SDS_P2;PMS_P1;PMS_P2;Temp;Humidity;BMP_temperature;BMP_pressure;BME280_temperature;BME280_humidity;BME280_pressure;Samples;Min_cycle;Max_cycle;Signal;HPM_P1;HPM_P2
2022/02/16 00:01:11;;;;;;;1.67;1.45;;;7.10;99.90;;;7.72;100.00;99416.69;5054179;28;20387;-76
2022/02/16 00:03:37;;;;;;;1.52;1.17;;;7.10;99.90;;;7.64;100.00;99409.41;5053677;28;20044;-77
2022/02/16 00:06:06;;;;;;;3.65;1.00;;;7.10;99.90;;;7.69;100.00;99406.31;5036084;28;20036;-77
2022/02/16 00:08:32;;;;;;;3.72;1.38;;;7.10;99.90;;;7.75;100.00;99397.31;5053589;28;20028;-77
2022/02/16 00:10:58;;;;;;;2.88;1.20;;;7.10;99.90;;;7.74;100.00;99392.91;5038970;28;20021;-76
2022/02/16 00:13:24;;;;;;;2.08;1.00;;;7.10;99.90;;;7.70;100.00;99386.50;5071703;28;20029;-75
2022/02/16 00:15:50;;;;;;;1.23;1.13;;;7.10;99.90;;;7.68;100.00;99374.13;5070522;28;20488;-76
2022/02/16 00:18:16;;;;;;;2.30;1.20;;;7.10;99.90;;;7.73;100.00;99373.84;5056263;28;20393;-75
2022/02/16 00:20:42;;;;;;;1.52;1.42;;;7.10;99.90;;;7.73;100.00;99374.66;5063992;28;20062;-76
2022/02/16 00:23:08;;;;;;;1.42;1.17;;;7.10;99.90;;;7.72;100.00;99383.34;5062276;28;20033;-77
2022/02/16 00:25:33;;;;;;;1.60;1.17;;;7.10;99.90;;;7.70;100.00;99369.84;5035782;28;20043;-76
2022/02/16 00:28:03;;;;;;;1.90;1.10;;;7.10;99.90;;;7.65;100.00;99363.75;5035295;28;20116;-76
2022/02/16 00:30:29;;;;;;;1.70;1.15;;;7.10;99.90;;;7.65;100.00;99377.66;5035704;28;20037;-76
2022/02/16 00:32:55;;;;;;;2.08;1.30;;;7.00;99.90;;;7.59;100.00;99368.03;5054458;28;20089;-76
2022/02/16 00:35:21;;;;;;;1.40;1.10;;;7.10;99.90;;;7.57;100.00;99353.72;5054675;28;20037;-76
2022/02/16 00:37:47;;;;;;;2.10;1.35;;;7.10;99.90;;;7.65;100.00;99350.69;5035454;28;20392;-76
2022/02/16 00:40:14;;;;;;;1.85;1.10;;;7.10;99.90;;;7.70;100.00;99355.13;5035641;28;20056;-76
2022/02/16 00:42:40;;;;;;;1.58;1.25;;;7.10;99.90;;;7.68;100.00;99355.50;5052818;28;20045;-76
2022/02/16 00:45:07;;;;;;;2.33;1.23;;;7.10;99.90;;;7.66;100.00;99345.94;5053450;28;20097;-76
2022/02/16 00:47:33;;;;;;;1.30;1.20;;;7.10;99.90;;;7.58;100.00;99336.66;5052029;28;20025;-77
2022/02/16 00:50:00;;;;;;;1.63;1.08;;;7.10;99.90;;;7.69;100.00;99334.06;5046516;28;20119;-75
2022/02/16 00:52:26;;;;;;;1.60;1.30;;;7.10;99.90;;;7.62;100.00;99331.97;5073443;28;20037;-77
2022/02/16 00:54:55;;;;;;;1.05;1.00;;;7.10;99.90;;;7.68;100.00;99313.81;5073065;28;20513;-76
2022/02/16 00:57:21;;;;;;;1.90;1.20;;;7.10;99.90;;;7.73;100.00;99318.25;5055094;28;20124;-76
2022/02/16 00:59:47;;;;;;;1.95;1.15;;;7.10;99.90;;;7.76;100.00;99312.78;5072988;28;20543;-76
2022/02/16 01:02:13;;;;;;;1.25;1.15;;;7.10;99.90;;;7.72;100.00;99308.31;5073204;28;20043;-76
2022/02/16 01:04:39;;;;;;;1.63;1.10;;;7.10;99.90;;;7.69;100.00;99303.50;5054912;28;20115;-77
2022/02/16 01:07:08;;;;;;;2.00;0.88;;;7.10;99.90;;;7.67;100.00;99300.31;5055318;28;20127;-78
2022/02/16 01:09:34;;;;;;;2.03;1.10;;;7.10;99.90;;;7.76;100.00;99295.28;5060745;28;20028;-76
2022/02/16 01:11:59;;;;;;;1.67;1.15;;;7.10;99.90;;;7.72;100.00;99300.78;5078902;28;20099;-76
2022/02/16 01:14:26;;;;;;;1.63;1.00;;;7.10;99.90;;;7.71;100.00;99310.28;5079404;28;20032;-77
2022/02/16 01:17:01;;;;;;;1.10;1.00;;;7.10;99.90;;;7.72;100.00;99289.66;5079876;28;20032;-75
2022/02/16 01:19:27;;;;;;;1.30;1.20;;;7.10;99.90;;;7.72;100.00;99283.31;5079656;28;20021;-77
2022/02/16 01:21:53;;;;;;;2.30;1.30;;;7.10;99.90;;;7.67;100.00;99280.84;5079607;28;20512;-76
2022/02/16 01:24:22;;;;;;;2.65;1.40;;;7.10;99.90;;;7.77;100.00;99286.56;5077031;28;20024;-76
2022/02/16 01:26:48;;;;;;;1.38;1.27;;;7.10;99.90;;;7.84;100.00;99280.31;5072793;28;20052;-76
2022/02/16 01:29:15;;;;;;;1.58;1.23;;;7.20;99.90;;;8.20;100.00;99279.69;5072046;28;20028;-76
2022/02/16 01:31:44;;;;;;;1.25;1.10;;;7.10;99.90;;;7.99;100.00;99278.56;5070717;28;20028;-76
2022/02/16 01:34:10;;;;;;;1.17;1.08;;;7.20;99.90;;;8.22;100.00;99271.75;5072083;28;20028;-74
2022/02/16 01:36:38;;;;;;;2.38;1.40;;;7.10;99.90;;;8.22;100.00;99273.78;5072093;28;20120;-77
2022/02/16 01:39:07;;;;;;;2.50;1.23;;;7.20;99.90;;;8.28;100.00;99270.28;5072434;28;20086;-77
2022/02/16 01:41:34;;;;;;;2.72;1.15;;;7.10;99.90;;;8.41;100.00;99254.97;5054532;28;20395;-77
2022/02/16 01:44:01;;;;;;;1.90;1.30;;;7.20;99.90;;;8.31;100.00;99254.84;5054240;28;20360;-76
2022/02/16 01:46:27;;;;;;;2.03;1.20;;;7.20;99.90;;;8.32;100.00;99242.53;5072529;28;20078;-76
2022/02/16 01:48:54;;;;;;;2.55;1.10;;;7.20;99.90;;;8.19;100.00;99238.34;5052086;28;20032;-77
2022/02/16 01:51:21;;;;;;;1.98;1.17;;;7.20;99.90;;;8.29;100.00;99241.31;5052995;28;20049;-77
2022/02/16 01:53:47;;;;;;;3.03;1.27;;;7.20;99.90;;;8.25;100.00;99231.28;5052197;28;20095;-77
2022/02/16 01:56:14;;;;;;;2.38;1.27;;;7.20;99.90;;;8.19;100.00;99243.91;5052449;28;20033;-76
2022/02/16 01:58:43;;;;;;;1.30;1.20;;;7.20;99.90;;;8.33;100.00;99233.00;5034830;28;20028;-78
2022/02/16 02:01:09;;;;;;;1.73;1.20;;;7.20;99.90;;;8.39;100.00;99239.84;5052574;28;20032;-76
2022/02/16 02:03:35;;;;;;;1.33;1.15;;;7.20;99.90;;;8.36;100.00;99237.81;5039333;28;20020;-77
2022/02/16 02:06:01;;;;;;;1.70;1.30;;;7.30;99.90;;;8.26;100.00;99224.53;5050624;28;20073;-76
2022/02/16 02:08:27;;;;;;;1.25;1.15;;;7.20;99.90;;;8.46;100.00;99217.69;5055847;28;20025;-76
2022/02/16 02:10:57;;;;;;;1.80;1.10;;;7.20;99.90;;;8.38;100.00;99218.78;5058429;28;20021;-77
2022/02/16 02:13:23;;;;;;;1.40;1.17;;;7.30;99.90;;;8.52;100.00;99201.44;5038002;28;20087;-76
2022/02/16 02:15:49;;;;;;;1.27;1.13;;;7.30;99.90;;;8.33;100.00;99213.53;5040361;28;20508;-77
2022/02/16 02:18:24;;;;;;;1.25;1.17;;;7.30;99.90;;;8.26;100.00;99202.28;5053951;28;20065;-76
2022/02/16 02:20:56;;;;;;;1.55;1.42;;;7.30;99.90;;;8.14;100.00;99197.78;5058010;28;20103;-76
2022/02/16 02:23:22;;;;;;;2.33;1.70;;;7.30;99.90;;;8.21;100.00;99199.84;5041626;28;20033;-76
2022/02/16 02:25:57;;;;;;;2.47;1.40;;;7.20;99.90;;;8.23;100.00;99184.38;5059283;28;20032;-76
2022/02/16 02:28:25;;;;;;;1.90;1.60;;;7.30;99.90;;;8.19;100.00;99179.94;5037920;28;20036;-75
2022/02/16 02:30:52;;;;;;;2.63;1.50;;;7.30;99.90;;;8.28;100.00;99184.06;5056246;28;20072;-77
2022/02/16 02:33:18;;;;;;;1.50;1.40;;;7.30;99.90;;;8.30;100.00;99169.78;5057093;28;20036;-77
2022/02/16 02:35:47;;;;;;;2.10;1.48;;;7.30;99.90;;;8.15;100.00;99166.00;5046155;28;20033;-77
2022/02/16 02:38:13;;;;;;;2.25;1.52;;;7.30;99.90;;;8.29;100.00;99159.84;5058907;28;20469;-76
2022/02/16 02:40:39;;;;;;;1.70;1.50;;;7.30;99.90;;;8.25;100.00;99154.19;5076828;28;20024;-76
2022/02/16 02:43:21;;;;;;;1.35;1.25;;;7.30;99.90;;;8.23;100.00;99152.97;5077095;28;20035;-77
2022/02/16 02:46:01;;;;;;;1.52;1.42;;;7.30;99.90;;;8.31;100.00;99157.50;5075714;28;20036;-77
2022/02/16 02:48:46;;;;;;;2.22;1.85;;;7.40;99.90;;;8.36;100.00;99149.59;5079802;28;20058;-76
2022/02/16 02:51:14;;;;;;;2.70;1.48;;;7.30;99.90;;;8.36;100.00;99140.44;5037770;28;20033;-78
2022/02/16 02:53:42;;;;;;;2.75;1.23;;;7.40;99.90;;;8.45;100.00;99149.28;5036263;28;20548;-74
2022/02/16 02:56:11;;;;;;;1.55;1.23;;;7.40;99.90;;;8.43;100.00;99137.75;5021178;28;20029;-76
2022/02/16 02:58:38;;;;;;;1.60;1.50;;;7.40;99.90;;;8.50;100.00;99145.38;5035304;28;20068;-76
2022/02/16 03:01:12;;;;;;;1.65;1.30;;;7.50;99.90;;;8.42;100.00;99133.38;5036522;28;20033;-76
2022/02/16 03:03:44;;;;;;;1.70;1.13;;;7.50;99.90;;;8.48;100.00;99137.41;5039484;28;20486;-77
2022/02/16 03:06:11;;;;;;;1.40;1.30;;;7.50;99.90;;;8.54;100.00;99133.09;5017875;28;20487;-77
2022/02/16 03:08:57;;;;;;;1.52;1.10;;;7.50;99.90;;;8.48;100.00;99122.72;5039517;28;20087;-78
2022/02/16 03:11:23;;;;;;;2.72;1.33;;;7.60;99.90;;;8.44;100.00;99129.00;5036879;28;20033;-77
2022/02/16 03:13:53;;;;;;;1.73;1.20;;;7.50;99.90;;;8.54;100.00;99126.75;5041543;28;20037;-77
2022/02/16 03:16:31;;;;;;;1.30;1.20;;;7.50;99.90;;;8.65;100.00;99136.00;5017653;28;20068;-77
2022/02/16 03:19:25;;;;;;;1.30;1.20;;;7.50;99.90;;;8.54;100.00;99126.75;5023264;28;20160;-77
2022/02/16 03:22:12;;;;;;;1.40;1.30;;;7.60;99.90;;;8.55;100.00;99118.00;5026212;28;20435;-78
2022/02/16 03:24:38;;;;;;;1.35;1.25;;;7.60;99.90;;;8.48;100.00;99111.59;5041259;28;20111;-75
2022/02/16 03:27:15;;;;;;;1.52;1.30;;;7.60;99.90;;;8.62;100.00;99120.06;5020434;28;20037;-76
2022/02/16 03:30:09;;;;;;;1.83;1.48;;;7.60;99.90;;;8.64;100.00;99112.13;5037636;28;20055;-78
2022/02/16 03:32:36;;;;;;;1.52;1.40;;;7.60;99.90;;;8.65;100.00;99113.75;5041126;28;20021;-75
2022/02/16 03:35:04;;;;;;;2.53;1.60;;;7.60;99.90;;;8.65;100.00;99106.19;5037843;28;20029;-76
2022/02/16 03:37:41;;;;;;;1.50;1.40;;;7.60;99.90;;;8.75;100.00;99099.94;5021551;28;20026;-75
2022/02/16 03:40:10;;;;;;;1.73;1.63;;;7.60;99.90;;;8.60;100.00;99097.41;5020103;28;20026;-76
2022/02/16 03:42:38;;;;;;;1.83;1.65;;;7.60;99.90;;;8.74;100.00;99092.75;5041060;28;20079;-76
2022/02/16 03:45:05;;;;;;;2.13;1.60;;;7.60;99.90;;;8.64;100.00;99089.88;5037390;28;20108;-75
2022/02/16 03:48:06;;;;;;;2.25;1.95;;;7.60;99.90;;;8.64;100.00;99075.94;5055441;28;20031;-76
2022/02/16 03:50:32;;;;;;;2.53;2.22;;;7.70;99.90;;;8.74;100.00;99070.50;5032894;28;20051;-77
2022/02/16 03:52:57;;;;;;;3.95;2.38;;;7.60;99.90;;;8.64;100.00;99071.19;5036849;28;20024;-76
2022/02/16 03:55:23;;;;;;;2.08;1.98;;;7.60;99.90;;;8.67;100.00;99075.97;5058945;28;20044;-77
2022/02/16 03:57:55;;;;;;;2.53;1.85;;;7.60;99.90;;;8.74;100.00;99067.72;5057785;28;20057;-76
2022/02/16 04:00:21;;;;;;;2.58;1.65;;;7.70;99.90;;;8.75;100.00;99076.88;5038801;28;20021;-76
2022/02/16 04:02:56;;;;;;;2.25;1.80;;;7.70;99.90;;;8.82;100.00;99063.00;5060360;28;20033;-76
2022/02/16 04:05:23;;;;;;;1.70;1.60;;;7.70;99.90;;;8.78;100.00;99062.97;5056585;28;20032;-76
2022/02/16 04:07:52;;;;;;;1.75;1.65;;;7.70;99.90;;;8.84;100.00;99069.78;5060794;28;20032;-76
2022/02/16 04:10:33;;;;;;;2.47;1.73;;;7.70;99.90;;;8.84;100.00;99078.13;5059512;28;20037;-76
2022/02/16 04:13:00;;;;;;;2.83;1.75;;;7.80;99.90;;;9.07;100.00;99071.56;5065697;28;20047;-75
2022/02/16 04:15:48;;;;;;;2.30;2.10;;;7.80;99.90;;;8.93;100.00;99056.34;5068770;28;20037;-75
2022/02/16 04:18:14;;;;;;;2.13;1.52;;;7.80;99.90;;;8.84;100.00;99050.31;5061297;28;20033;-76
2022/02/16 04:20:42;;;;;;;1.73;1.63;;;7.80;99.90;;;8.85;100.00;99045.53;5058562;28;20029;-77
2022/02/16 04:23:12;;;;;;;1.75;1.65;;;7.80;99.90;;;8.87;100.00;99043.16;5069783;22;20032;-81
2022/02/16 04:25:38;;;;;;;2.65;1.65;;;7.80;99.90;;;8.96;100.00;99038.06;5001119;28;20045;-80
2022/02/16 04:28:07;;;;;;;1.70;1.60;;;7.70;99.90;;;8.89;100.00;99033.22;5002065;28;20034;-81
2022/02/16 04:30:33;;;;;;;2.38;2.17;;;7.80;99.90;;;8.93;100.00;99028.50;5000323;28;20065;-80
2022/02/16 04:32:59;;;;;;;1.88;1.77;;;7.80;99.90;;;8.97;100.00;99020.97;4999838;28;20049;-80
2022/02/16 04:35:25;;;;;;;2.05;1.42;;;7.80;99.90;;;8.74;100.00;99017.59;4998735;28;20563;-79
2022/02/16 04:37:52;;;;;;;2.25;2.03;;;7.80;99.90;;;8.48;100.00;99013.00;5014967;28;20481;-80
2022/02/16 04:40:18;;;;;;;1.77;1.67;;;7.80;99.90;;;8.33;100.00;99002.94;5016474;28;20127;-82
2022/02/16 04:42:45;;;;;;;2.35;1.88;;;7.80;99.90;;;8.46;100.00;99007.03;5021788;28;20022;-82
2022/02/16 04:45:14;;;;;;;1.90;1.58;;;7.80;99.90;;;8.48;100.00;99003.84;5019282;28;20026;-81
2022/02/16 04:47:40;;;;;;;1.67;1.58;;;7.80;99.90;;;8.39;100.00;99006.16;5018304;28;20109;-79
2022/02/16 04:50:07;;;;;;;2.20;1.60;;;7.80;99.90;;;8.46;100.00;99003.44;5025261;28;20029;-78
2022/02/16 04:52:36;;;;;;;1.60;1.25;;;7.80;99.90;;;8.37;100.00;99003.78;4996722;28;20034;-80
2022/02/16 04:55:10;;;;;;;3.17;1.30;;;7.70;99.90;;;8.42;100.00;99005.41;5014228;28;20030;-79
2022/02/16 04:57:37;;;;;;;4.35;1.20;;;7.80;99.90;;;8.36;100.00;98985.47;5013640;28;20026;-83
2022/02/16 05:00:09;;;;;;;1.85;1.27;;;7.70;99.90;;;8.28;100.00;98974.69;5013212;28;20068;-81
2022/02/16 05:02:35;;;;;;;2.97;1.25;;;7.70;99.90;;;8.28;100.00;98975.47;5013343;28;20026;-81
2022/02/16 05:05:01;;;;;;;1.42;1.33;;;7.70;99.90;;;8.26;100.00;98966.69;4995821;28;20029;-82
2022/02/16 05:07:27;;;;;;;2.45;1.10;;;7.70;99.90;;;8.27;100.00;98967.47;5013362;28;20482;-82
2022/02/16 05:09:52;;;;;;;1.33;0.82;;;7.70;99.90;;;8.28;100.00;98958.78;4995948;28;20036;-80
2022/02/16 05:12:18;;;;;;;1.38;1.10;;;7.60;99.90;;;8.30;100.00;98962.00;5013689;28;20040;-81
2022/02/16 05:14:44;;;;;;;1.75;0.88;;;7.70;99.90;;;8.29;100.00;98952.03;5013922;28;20033;-79
2022/02/16 05:17:13;;;;;;;1.92;0.90;;;7.70;99.90;;;8.30;100.00;98942.53;5014148;28;20104;-81
2022/02/16 05:19:43;;;;;;;1.05;0.98;;;7.70;99.90;;;8.34;100.00;98940.56;4996906;28;20034;-79
2022/02/16 05:22:10;;;;;;;1.33;0.90;;;7.70;99.90;;;8.38;100.00;98924.69;5007418;28;20351;-81
2022/02/16 05:24:36;;;;;;;1.92;0.98;;;7.70;99.90;;;8.34;100.00;98920.31;4998791;28;20050;-83
2022/02/16 05:27:05;;;;;;;2.45;0.80;;;7.70;99.90;;;8.31;100.00;98913.53;5003183;28;20069;-81
2022/02/16 05:29:30;;;;;;;2.92;0.88;;;7.70;99.90;;;8.30;100.00;98889.66;5002065;28;20057;-81
2022/02/16 05:31:56;;;;;;;1.05;0.85;;;7.70;99.90;;;8.33;100.00;98877.78;5014827;28;20040;-79
2022/02/16 05:34:22;;;;;;;0.68;0.60;;;7.70;99.90;;;8.31;100.00;98877.38;4997160;28;20049;-80
2022/02/16 05:36:48;;;;;;;1.65;0.70;;;7.80;99.90;;;8.37;100.00;98870.25;4997323;28;20025;-81
2022/02/16 05:39:14;;;;;;;2.75;0.88;;;7.80;99.90;;;8.39;100.00;98856.75;4997333;28;20429;-80
2022/02/16 05:41:47;;;;;;;1.33;0.50;;;7.80;99.90;;;8.36;100.00;98854.75;5013569;28;20130;-80
2022/02/16 05:44:12;;;;;;;0.88;0.63;;;7.80;99.90;;;8.43;100.00;98845.66;4995531;28;20508;-80
2022/02/16 05:46:41;;;;;;;1.42;0.70;;;7.80;99.90;;;8.37;100.00;98847.22;4995897;28;20037;-80
2022/02/16 05:49:10;;;;;;;0.50;0.50;;;7.80;99.90;;;8.43;100.00;98845.66;5017240;28;20029;-80
2022/02/16 05:51:37;;;;;;;1.65;0.60;;;7.90;99.90;;;8.51;100.00;98841.72;5032342;28;20081;-81
2022/02/16 05:54:05;;;;;;;1.05;0.57;;;7.90;99.90;;;8.48;100.00;98832.16;5033473;28;20053;-80
2022/02/16 05:56:32;;;;;;;0.70;0.68;;;7.90;99.90;;;8.45;100.00;98832.94;5015101;28;20048;-80
2022/02/16 05:58:58;;;;;;;2.17;0.50;;;7.90;99.90;;;8.55;100.00;98825.84;5015464;28;20390;-79
2022/02/16 06:01:24;;;;;;;0.70;0.47;;;8.00;99.90;;;8.67;100.00;98835.88;5032809;28;20057;-79
2022/02/16 06:03:51;;;;;;;1.45;0.60;;;8.00;99.90;;;8.59;100.00;98832.25;5034605;28;20087;-82
2022/02/16 06:06:18;;;;;;;1.88;0.70;;;8.00;99.90;;;8.56;100.00;98841.38;5015785;28;20118;-80
2022/02/16 06:08:46;;;;;;;0.65;0.65;;;8.00;99.90;;;8.68;100.00;98817.97;5015346;28;20036;-82
2022/02/16 06:11:17;;;;;;;2.20;0.70;;;8.00;99.90;;;8.57;100.00;98809.59;5015327;28;20397;-81
2022/02/16 06:13:47;;;;;;;1.05;0.70;;;8.00;99.90;;;8.62;100.00;98800.06;5032584;28;20064;-82
2022/02/16 06:16:16;;;;;;;0.98;0.70;;;8.00;99.90;;;8.60;100.00;98808.00;5014993;28;20030;-79
2022/02/16 06:18:42;;;;;;;1.70;0.77;;;8.00;99.90;;;8.60;100.00;98803.25;5015229;28;20128;-83
2022/02/16 06:21:08;;;;;;;0.85;0.82;;;8.00;99.90;;;8.65;100.00;98800.06;5015774;28;20159;-83
2022/02/16 06:23:33;;;;;;;2.78;0.85;;;8.00;99.90;;;8.69;100.00;98775.84;5034754;28;20025;-85
2022/02/16 06:25:59;;;;;;;4.00;1.00;;;8.00;99.90;;;8.59;100.00;98781.34;5017734;28;20030;-84
2022/02/16 06:28:28;;;;;;;1.00;0.90;;;8.00;99.90;;;8.72;100.00;98780.63;5016911;28;20029;-80
2022/02/16 06:30:55;;;;;;;0.65;0.60;;;8.10;99.90;;;8.71;100.00;98776.25;5016168;28;20036;-82
2022/02/16 06:33:21;;;;;;;1.52;0.60;;;8.10;99.90;;;8.73;100.00;98764.75;5034143;28;20477;-80
2022/02/16 06:35:47;;;;;;;0.77;0.50;;;8.10;99.90;;;8.81;100.00;98769.94;5016947;28;20036;-80
2022/02/16 06:38:13;;;;;;;1.42;1.00;;;8.20;99.90;;;8.80;100.00;98765.53;5015524;28;20025;-79
2022/02/16 06:40:39;;;;;;;1.00;0.90;;;8.20;99.90;;;8.84;100.00;98763.59;5033909;28;20040;-76
2022/02/16 06:43:05;;;;;;;1.10;0.55;;;8.20;99.90;;;8.83;100.00;98748.06;5038682;28;20396;-77
2022/02/16 06:45:31;;;;;;;2.90;0.77;;;8.20;99.90;;;8.90;100.00;98753.66;5019856;28;20029;-78
2022/02/16 06:47:57;;;;;;;2.28;0.90;;;8.30;99.90;;;8.81;100.00;98760.78;5037019;28;20108;-78
2022/02/16 06:50:23;;;;;;;0.70;0.70;;;8.20;99.90;;;8.88;100.00;98744.09;5005108;28;20065;-79
2022/02/16 06:52:52;;;;;;;1.48;0.77;;;8.20;99.90;;;8.83;100.00;98741.72;5016137;28;20037;-78
2022/02/16 06:55:17;;;;;;;3.90;0.70;;;8.20;99.90;;;8.78;100.00;98731.75;5017633;28;20083;-79
2022/02/16 06:57:43;;;;;;;0.90;0.68;;;8.20;99.90;;;8.82;100.00;98740.91;5016992;28;20034;-79
2022/02/16 07:00:10;;;;;;;1.45;0.70;;;8.20;99.90;;;8.77;100.00;98732.13;5017626;28;20033;-81
2022/02/16 07:02:47;;;;;;;1.23;0.93;;;8.20;99.90;;;8.80;100.00;98734.13;5017296;28;20028;-78
2022/02/16 07:05:19;;;;;;;0.50;0.50;;;8.20;99.90;;;8.79;100.00;98736.13;5017354;28;20028;-82
2022/02/16 07:07:45;;;;;;;1.30;0.98;;;8.20;99.90;;;8.76;100.00;98734.13;5017148;28;20034;-80
2022/02/16 07:10:11;;;;;;;2.53;0.88;;;8.20;99.90;;;8.76;100.00;98714.66;4999570;28;20045;-83
2022/02/16 07:12:38;;;;;;;1.02;0.70;;;8.20;99.90;;;8.77;100.00;98709.84;4999157;28;20034;-80
2022/02/16 07:15:11;;;;;;;0.50;0.50;;;8.20;99.90;;;8.78;100.00;98706.69;4998844;28;20503;-80
2022/02/16 07:17:40;;;;;;;0.68;0.68;;;8.20;99.90;;;8.79;100.00;98707.50;5016680;28;20076;-79
2022/02/16 07:20:15;;;;;;;0.93;0.80;;;8.20;99.90;;;8.89;100.00;98703.94;4999760;28;20124;-83
2022/02/16 07:22:48;;;;;;;0.80;0.70;;;8.20;99.90;;;8.82;100.00;98696.38;4999183;28;20117;-79
2022/02/16 07:25:16;;;;;;;3.70;0.75;;;8.20;99.90;;;8.87;100.00;98698.78;5016267;28;20121;-79
2022/02/16 07:27:42;;;;;;;0.95;0.80;;;8.30;99.90;;;8.93;100.00;98690.81;5000232;28;20034;-80
2022/02/16 07:30:13;;;;;;;0.50;0.50;;;8.30;99.90;;;8.93;100.00;98682.47;5011271;28;20045;-82
2022/02/16 07:32:42;;;;;;;1.35;0.55;;;8.30;99.90;;;8.90;100.00;98691.59;5033228;28;20037;-81
2022/02/16 07:35:12;;;;;;;0.80;0.40;;;8.40;99.90;;;8.93;100.00;98671.34;5019482;28;20075;-78
2022/02/16 07:37:39;;;;;;;0.60;0.47;;;8.30;99.90;;;8.96;100.00;98670.53;5037118;28;20032;-78
2022/02/16 07:40:12;;;;;;;1.17;0.60;;;8.40;99.90;;;8.97;100.00;98674.94;5018721;28;20041;-78
2022/02/16 07:42:41;;;;;;;0.70;0.40;;;8.40;99.90;;;9.00;100.00;98671.34;5035955;28;20504;-79
2022/02/16 07:45:07;;;;;;;1.33;0.50;;;8.40;99.90;;;9.02;100.00;98668.19;5018338;28;20251;-78
2022/02/16 07:47:36;;;;;;;0.50;0.50;;;8.50;99.90;;;9.15;100.00;98672.19;5019290;28;20112;-78
2022/02/16 07:50:04;;;;;;;0.43;0.40;;;8.50;99.90;;;9.09;100.00;98671.75;5025128;28;20112;-79
2022/02/16 07:52:37;;;;;;;0.75;0.43;;;8.50;99.90;;;9.17;100.00;98667.81;5016646;28;20033;-78
2022/02/16 07:55:06;;;;;;;2.78;0.60;;;8.60;99.90;;;9.15;100.00;98647.13;4998341;28;20382;-77
2022/02/16 07:57:32;;;;;;;0.68;0.50;;;8.60;99.90;;;9.13;100.00;98644.72;4998162;28;20076;-78
2022/02/16 07:59:58;;;;;;;1.55;0.40;;;8.60;99.90;;;9.25;100.00;98635.97;5015879;28;20390;-80
2022/02/16 08:02:24;;;;;;;0.47;0.40;;;8.70;99.90;;;9.27;100.00;98621.66;4998743;28;20037;-78
2022/02/16 08:04:50;;;;;;;0.40;0.40;;;8.70;99.90;;;9.32;100.00;98627.63;5016386;28;20026;-80
2022/02/16 08:07:16;;;;;;;0.57;0.43;;;8.70;99.90;;;9.29;100.00;98624.81;5016464;28;20053;-78
2022/02/16 08:09:45;;;;;;;0.30;0.28;;;8.80;99.90;;;9.42;100.00;98628.81;5015808;28;20040;-79
2022/02/16 08:12:14;;;;;;;0.88;0.50;;;8.80;99.90;;;9.43;100.00;98653.50;4998292;28;20444;-78
2022/02/16 08:14:41;;;;;;;1.15;0.60;;;8.90;99.90;;;9.43;100.00;98652.69;4998170;28;20033;-77
2022/02/16 08:17:08;;;;;;;1.95;0.30;;;8.80;99.90;;;9.44;100.00;98632.78;5017125;28;20072;-77
2022/02/16 08:19:38;;;;;;;1.48;0.35;;;8.80;99.90;;;9.46;100.00;98649.09;5016551;28;20037;-79
2022/02/16 08:22:05;;;;;;;2.25;0.70;;;8.80;99.90;;;9.32;100.00;98621.25;4998305;28;20072;-79
2022/02/16 08:24:31;;;;;;;1.42;0.50;;;8.80;99.90;;;9.43;100.00;98630.41;5016457;28;20520;-79
2022/02/16 08:26:59;;;;;;;1.30;0.43;;;8.80;99.90;;;9.29;100.00;98630.41;5016928;28;20371;-76
2022/02/16 08:29:26;;;;;;;0.52;0.30;;;8.70;99.90;;;9.21;100.00;98628.81;5017703;28;20041;-81
2022/02/16 08:31:53;;;;;;;0.32;0.30;;;8.70;99.90;;;9.26;100.00;98636.75;5016008;28;20536;-79
2022/02/16 08:34:19;;;;;;;0.80;0.40;;;8.70;99.90;;;9.24;100.00;98639.16;4998755;28;20026;-78
2022/02/16 08:36:45;;;;;;;1.63;0.57;;;8.70;99.90;;;9.35;100.00;98632.38;5016772;28;20022;-78
2022/02/16 08:39:14;;;;;;;0.52;0.40;;;8.70;99.90;;;9.46;100.00;98626.81;4997259;28;20120;-80
2022/02/16 08:41:40;;;;;;;0.50;0.40;;;8.80;99.90;;;9.44;100.00;98632.78;4998352;28;20394;-79
2022/02/16 08:44:06;;;;;;;1.10;0.50;;;8.80;99.90;;;9.32;100.00;98616.47;5015447;28;20282;-80
2022/02/16 08:46:32;;;;;;;1.10;0.50;;;8.80;99.90;;;9.35;100.00;98615.66;5015020;28;20026;-79
2022/02/16 08:49:01;;;;;;;0.65;0.30;;;8.80;99.90;;;9.46;100.00;98624.03;5018756;28;20025;-78
2022/02/16 08:51:29;;;;;;;0.43;0.43;;;8.80;99.90;;;9.48;100.00;98630.78;5019085;28;20164;-78
2022/02/16 08:53:56;;;;;;;1.10;0.60;;;8.90;99.90;;;9.54;100.00;98629.19;5036164;28;20030;-79
2022/02/16 08:56:23;;;;;;;1.60;0.60;;;9.00;99.90;;;9.51;100.00;98616.06;5019389;28;20040;-79
2022/02/16 08:58:49;;;;;;;1.15;0.70;;;9.00;99.90;;;9.56;100.00;98628.81;5019051;28;20451;-80
2022/02/16 09:01:33;;;;;;;1.65;0.70;;;9.00;99.90;;;9.74;100.00;98635.13;5040917;28;20021;-79
2022/02/16 09:04:06;;;;;;;2.90;0.68;;;9.10;99.90;;;9.76;100.00;98626.38;5033987;28;20033;-80
2022/02/16 09:06:35;;;;;;;0.65;0.65;;;9.10;99.90;;;9.77;100.00;98642.69;5024372;28;20079;-78
2022/02/16 09:09:03;;;;;;;0.80;0.57;;;9.10;99.90;;;9.64;100.00;98637.94;5017112;28;20017;-79
2022/02/16 09:11:30;;;;;;;2.55;0.60;;;9.10;99.90;;;9.69;100.00;98645.91;5035514;28;20072;-79
2022/02/16 09:13:58;;;;;;;1.67;0.77;;;9.10;99.90;;;9.68;100.00;98642.31;5017600;28;20029;-80
2022/02/16 09:16:24;;;;;;;1.55;0.85;;;9.10;99.90;;;9.78;100.00;98647.06;5036811;28;20021;-79
2022/02/16 09:18:50;;;;;;;1.90;0.60;;;9.20;99.90;;;9.81;100.00;98659.41;5017527;28;20037;-80
2022/02/16 09:21:19;;;;;;;2.28;0.88;;;9.20;99.90;;;9.75;100.00;98645.09;5035467;28;20159;-78
2022/02/16 09:23:49;;;;;;;1.42;1.02;;;9.20;99.90;;;9.87;100.00;98666.97;5038449;28;20025;-83
2022/02/16 09:26:16;;;;;;;2.30;1.40;;;9.20;99.90;;;10.01;100.00;98655.00;5041854;28;20525;-80
2022/02/16 09:28:46;;;;;;;1.60;1.10;;;9.30;99.90;;;10.04;100.00;98649.41;5044865;28;20069;-81
2022/02/16 09:31:15;;;;;;;1.73;1.10;;;9.30;99.90;;;9.95;100.00;98637.88;5039571;28;20029;-79
2022/02/16 09:33:41;;;;;;;1.88;1.25;;;9.30;99.90;;;10.08;100.00;98630.66;5034866;28;20021;-81
2022/02/16 09:36:07;;;;;;;2.15;1.40;;;9.40;99.90;;;10.13;100.00;98660.13;5035068;28;20370;-80
2022/02/16 09:38:36;;;;;;;1.25;1.15;;;9.40;99.90;;;10.24;100.00;98669.28;5017400;28;20105;-79
2022/02/16 09:41:16;;;;;;;3.42;2.08;;;9.40;99.90;;;10.25;100.00;98665.31;5035421;28;20021;-80
2022/02/16 09:43:46;;;;;;;2.80;1.60;;;9.50;99.90;;;10.23;100.00;98656.56;5019434;28;20032;-76
2022/02/16 09:46:12;;;;;;;3.00;2.40;;;9.60;99.90;;;10.32;100.00;98653.31;5018113;28;20032;-79
2022/02/16 09:48:40;;;;;;;2.47;1.98;;;9.60;99.90;;;10.43;100.00;98651.31;5033801;28;20098;-82
2022/02/16 09:51:06;;;;;;;3.40;1.90;;;9.70;99.90;;;10.49;100.00;98650.47;5015807;28;20093;-81
2022/02/16 09:53:32;;;;;;;2.78;2.35;;;9.80;99.90;;;10.55;100.00;98656.41;5015495;28;20029;-80
2022/02/16 09:56:03;;;;;;;2.58;2.10;;;9.80;99.90;;;10.59;100.00;98666.34;4996979;28;20033;-82
2022/02/16 09:58:34;;;;;;;2.55;2.22;;;9.90;99.90;;;10.61;100.00;98676.31;4996556;28;20034;-82
2022/02/16 10:01:15;;;;;;;3.35;2.50;;;10.00;99.90;;;10.68;100.00;98677.09;5015062;28;20398;-79
2022/02/16 10:04:19;;;;;;;2.03;1.70;;;10.00;99.90;;;10.86;100.00;98660.22;5015221;28;20022;-82
2022/02/16 10:06:48;;;;;;;2.17;1.98;;;10.10;99.90;;;10.92;100.00;98666.97;4945892;29;20119;-82
2022/02/16 10:09:30;;;;;;;2.13;1.88;;;10.20;99.90;;;10.88;100.00;98664.22;4920745;29;20090;-79
2022/02/16 10:12:01;;;;;;;2.28;1.30;;;10.20;99.90;;;10.83;100.00;98661.84;4984102;28;20500;-80
2022/02/16 10:14:33;;;;;;;1.23;1.13;;;10.20;99.90;;;10.94;100.00;98662.59;5015544;28;20055;-78
2022/02/16 10:17:35;;;;;;;1.05;0.90;;;10.30;99.90;;;10.95;100.00;98668.94;4998834;28;20536;-78
2022/02/16 10:20:07;;;;;;;1.05;0.93;;;10.30;99.90;;;11.05;100.00;98671.69;5001239;28;20030;-79
2022/02/16 10:22:49;;;;;;;0.68;0.68;;;10.40;99.90;;;11.17;100.00;98675.22;5001123;28;20022;-79
2022/02/16 10:25:28;;;;;;;0.73;0.73;;;10.40;99.90;;;11.19;100.00;98672.81;5067173;22;20558;-76
2022/02/16 10:28:21;;;;;;;1.55;0.70;;;10.50;99.90;;;11.25;100.00;98673.94;5052555;28;20033;-77
2022/02/16 10:31:07;;;;;;;0.70;0.70;;;10.60;99.90;;;11.25;100.00;98663.56;5034868;28;20029;-77
2022/02/16 10:33:51;;;;;;;0.63;0.50;;;10.50;99.90;;;11.37;100.00;98676.25;5034450;28;20368;-79